sensor_id;sensor_type;location;lat;lon;timestamp;P1;durP1;ratioP1;P2;durP2;ratioP2
20772;SDS011;10546;50.674;4.616;2023-11-21T06:35:58;59.17;;;24.10;;
20772;SDS011;10546;50.674;4.616;2023-11-21T06:38:29;58.60;;;23.70;;
20772;SDS011;10546;50.674;4.616;2023-11-21T07:22:22;51.73;;;23.27;;
20772;SDS011;10546;50.674;4.616;2023-11-21T07:24:51;54.03;;;24.07;;
20772;SDS011;10546;50.674;4.616;2023-11-21T07:27:17;54.97;;;23.67;;
20772;SDS011;10546;50.674;4.616;2023-11-21T07:29:43;50.43;;;23.43;;
20772;SDS011;10546;50.674;4.616;2023-11-21T07:32:09;59.73;;;24.33;;
20772;SDS011;10546;50.674;4.616;2023-11-21T07:34:34;52.00;;;23.80;;
20772;SDS011;10546;50.674;4.616;2023-11-21T07:37:01;57.33;;;24.37;;
20772;SDS011;10546;50.674;4.616;2023-11-21T07:39:27;62.80;;;24.77;;
20772;SDS011;10546;50.674;4.616;2023-11-21T07:41:53;54.70;;;23.47;;
20772;SDS011;10546;50.674;4.616;2023-11-21T07:44:19;51.30;;;23.07;;
20772;SDS011;10546;50.674;4.616;2023-11-21T07:46:45;52.37;;;22.80;;
20772;SDS011;10546;50.674;4.616;2023-11-21T07:49:11;49.53;;;22.37;;
20772;SDS011;10546;50.674;4.616;2023-11-21T07:51:40;54.90;;;22.17;;
20772;SDS011;10546;50.674;4.616;2023-11-21T07:54:06;53.67;;;23.97;;
20772;SDS011;10546;50.674;4.616;2023-11-21T07:56:32;56.80;;;23.57;;
20772;SDS011;10546;50.674;4.616;2023-11-21T07:58:58;61.77;;;25.10;;
20772;SDS011;10546;50.674;4.616;2023-11-21T08:01:23;54.33;;;23.43;;
20772;SDS011;10546;50.674;4.616;2023-11-21T08:03:49;54.03;;;23.97;;
20772;SDS011;10546;50.674;4.616;2023-11-21T08:06:17;61.63;;;25.03;;
20772;SDS011;10546;50.674;4.616;2023-11-21T08:08:43;60.50;;;26.00;;
20772;SDS011;10546;50.674;4.616;2023-11-21T08:11:08;67.00;;;26.60;;
20772;SDS011;10546;50.674;4.616;2023-11-21T08:13:35;53.67;;;25.83;;
20772;SDS011;10546;50.674;4.616;2023-11-21T08:16:01;65.77;;;26.00;;
20772;SDS011;10546;50.674;4.616;2023-11-21T08:18:29;57.73;;;24.50;;
20772;SDS011;10546;50.674;4.616;2023-11-21T08:20:54;70.97;;;27.33;;
20772;SDS011;10546;50.674;4.616;2023-11-21T08:23:21;59.53;;;26.73;;
20772;SDS011;10546;50.674;4.616;2023-11-21T08:25:50;66.07;;;27.77;;
20772;SDS011;10546;50.674;4.616;2023-11-21T08:28:17;61.83;;;26.30;;
20772;SDS011;10546;50.674;4.616;2023-11-21T08:30:43;67.97;;;28.50;;
20772;SDS011;10546;50.674;4.616;2023-11-21T08:33:09;70.03;;;28.13;;
20772;SDS011;10546;50.674;4.616;2023-11-21T08:35:36;64.33;;;26.63;;
20772;SDS011;10546;50.674;4.616;2023-11-21T08:38:02;64.03;;;26.20;;
20772;SDS011;10546;50.674;4.616;2023-11-21T08:40:28;60.87;;;25.70;;
20772;SDS011;10546;50.674;4.616;2023-11-21T08:42:54;60.53;;;26.90;;
20772;SDS011;10546;50.674;4.616;2023-11-21T08:45:23;63.47;;;25.50;;
20772;SDS011;10546;50.674;4.616;2023-11-21T08:47:50;57.67;;;25.30;;
20772;SDS011;10546;50.674;4.616;2023-11-21T08:50:15;61.80;;;25.07;;
20772;SDS011;10546;50.674;4.616;2023-11-21T08:52:41;57.43;;;24.17;;
20772;SDS011;10546;50.674;4.616;2023-11-21T08:55:07;62.43;;;25.47;;
20772;SDS011;10546;50.674;4.616;2023-11-21T08:57:37;55.30;;;26.37;;
20772;SDS011;10546;50.674;4.616;2023-11-21T09:00:03;53.10;;;24.87;;
20772;SDS011;10546;50.674;4.616;2023-11-21T09:02:35;62.60;;;26.27;;
20772;SDS011;10546;50.674;4.616;2023-11-21T09:05:02;62.80;;;27.30;;
20772;SDS011;10546;50.674;4.616;2023-11-21T09:07:29;61.60;;;27.50;;
20772;SDS011;10546;50.674;4.616;2023-11-21T09:09:54;63.67;;;30.20;;
20772;SDS011;10546;50.674;4.616;2023-11-21T09:12:20;64.83;;;26.13;;
20772;SDS011;10546;50.674;4.616;2023-11-21T09:14:46;59.30;;;24.13;;
20772;SDS011;10546;50.674;4.616;2023-11-21T09:17:12;64.27;;;25.03;;
20772;SDS011;10546;50.674;4.616;2023-11-21T09:19:39;69.70;;;26.53;;
20772;SDS011;10546;50.674;4.616;2023-11-21T09:22:05;61.80;;;25.93;;
20772;SDS011;10546;50.674;4.616;2023-11-21T09:24:32;51.27;;;23.10;;
20772;SDS011;10546;50.674;4.616;2023-11-21T09:26:58;54.67;;;23.50;;
20772;SDS011;10546;50.674;4.616;2023-11-21T09:29:25;56.23;;;24.90;;
20772;SDS011;10546;50.674;4.616;2023-11-21T09:31:51;55.30;;;23.77;;
20772;SDS011;10546;50.674;4.616;2023-11-21T09:34:16;65.00;;;24.40;;
20772;SDS011;10546;50.674;4.616;2023-11-21T09:36:46;60.57;;;24.50;;
20772;SDS011;10546;50.674;4.616;2023-11-21T09:39:12;51.57;;;23.77;;
20772;SDS011;10546;50.674;4.616;2023-11-21T09:41:50;55.53;;;22.20;;
20772;SDS011;10546;50.674;4.616;2023-11-21T09:44:29;59.70;;;23.03;;
20772;SDS011;10546;50.674;4.616;2023-11-21T09:47:00;56.97;;;22.92;;
20772;SDS011;10546;50.674;4.616;2023-11-21T09:49:26;54.90;;;22.37;;
20772;SDS011;10546;50.674;4.616;2023-11-21T09:51:54;52.15;;;21.48;;
20772;SDS011;10546;50.674;4.616;2023-11-21T09:54:23;55.57;;;22.97;;
20772;SDS011;10546;50.674;4.616;2023-11-21T09:56:50;57.37;;;22.60;;
20772;SDS011;10546;50.674;4.616;2023-11-21T09:59:15;65.23;;;22.67;;
20772;SDS011;10546;50.674;4.616;2023-11-21T10:01:41;56.30;;;22.23;;
20772;SDS011;10546;50.674;4.616;2023-11-21T10:04:08;58.08;;;23.42;;
20772;SDS011;10546;50.674;4.616;2023-11-21T10:06:37;50.37;;;20.67;;
20772;SDS011;10546;50.674;4.616;2023-11-21T10:09:06;55.85;;;21.67;;
20772;SDS011;10546;50.674;4.616;2023-11-21T10:11:39;53.73;;;21.37;;
20772;SDS011;10546;50.674;4.616;2023-11-21T10:14:06;62.38;;;22.52;;
20772;SDS011;10546;50.674;4.616;2023-11-21T10:16:35;61.35;;;21.42;;
20772;SDS011;10546;50.674;4.616;2023-11-21T10:19:04;49.33;;;20.83;;
20772;SDS011;10546;50.674;4.616;2023-11-21T10:21:32;52.90;;;19.80;;
20772;SDS011;10546;50.674;4.616;2023-11-21T10:23:58;60.20;;;20.98;;
20772;SDS011;10546;50.674;4.616;2023-11-21T10:26:24;55.50;;;20.70;;
20772;SDS011;10546;50.674;4.616;2023-11-21T10:28:59;53.83;;;21.00;;
20772;SDS011;10546;50.674;4.616;2023-11-21T10:31:33;59.60;;;22.00;;
20772;SDS011;10546;50.674;4.616;2023-11-21T10:34:12;57.22;;;20.83;;
20772;SDS011;10546;50.674;4.616;2023-11-21T10:36:43;59.23;;;20.67;;
20772;SDS011;10546;50.674;4.616;2023-11-21T10:39:09;56.28;;;21.05;;
20772;SDS011;10546;50.674;4.616;2023-11-21T10:41:43;48.80;;;20.07;;
20772;SDS011;10546;50.674;4.616;2023-11-21T10:44:10;48.50;;;18.53;;
20772;SDS011;10546;50.674;4.616;2023-11-21T10:46:39;48.30;;;18.60;;
20772;SDS011;10546;50.674;4.616;2023-11-21T10:49:05;41.97;;;17.37;;
20772;SDS011;10546;50.674;4.616;2023-11-21T10:51:31;36.05;;;16.02;;
20772;SDS011;10546;50.674;4.616;2023-11-21T10:53:57;35.53;;;14.50;;
20772;SDS011;10546;50.674;4.616;2023-11-21T10:56:25;31.45;;;14.13;;
20772;SDS011;10546;50.674;4.616;2023-11-21T10:58:52;31.30;;;14.03;;
20772;SDS011;10546;50.674;4.616;2023-11-21T11:01:18;33.67;;;14.47;;
20772;SDS011;10546;50.674;4.616;2023-11-21T11:03:46;34.83;;;15.05;;
20772;SDS011;10546;50.674;4.616;2023-11-21T11:06:12;33.77;;;14.97;;
20772;SDS011;10546;50.674;4.616;2023-11-21T11:08:40;38.83;;;15.93;;
20772;SDS011;10546;50.674;4.616;2023-11-21T11:11:06;42.67;;;15.73;;
20772;SDS011;10546;50.674;4.616;2023-11-21T11:13:32;36.80;;;15.47;;
20772;SDS011;10546;50.674;4.616;2023-11-21T11:15:59;36.23;;;15.57;;
20772;SDS011;10546;50.674;4.616;2023-11-21T11:18:31;33.88;;;14.70;;
20772;SDS011;10546;50.674;4.616;2023-11-21T11:26:52;44.40;;;18.30;;
20772;SDS011;10546;50.674;4.616;2023-11-21T11:29:59;40.43;;;17.47;;
20772;SDS011;10546;50.674;4.616;2023-11-21T11:33:00;38.60;;;18.15;;
20772;SDS011;10546;50.674;4.616;2023-11-21T11:37:57;45.57;;;18.60;;
20772;SDS011;10546;50.674;4.616;2023-11-21T11:40:26;45.23;;;19.07;;
20772;SDS011;10546;50.674;4.616;2023-11-21T11:43:05;45.50;;;20.03;;
20772;SDS011;10546;50.674;4.616;2023-11-21T11:45:32;53.77;;;21.27;;
20772;SDS011;10546;50.674;4.616;2023-11-21T11:47:59;42.07;;;19.00;;
20772;SDS011;10546;50.674;4.616;2023-11-21T11:50:26;48.30;;;18.70;;
20772;SDS011;10546;50.674;4.616;2023-11-21T11:52:52;44.30;;;18.87;;
20772;SDS011;10546;50.674;4.616;2023-11-21T11:55:23;40.37;;;18.87;;
20772;SDS011;10546;50.674;4.616;2023-11-21T11:57:51;42.43;;;18.93;;
20772;SDS011;10546;50.674;4.616;2023-11-21T12:00:21;39.43;;;17.40;;
20772;SDS011;10546;50.674;4.616;2023-11-21T12:03:02;40.57;;;17.67;;
20772;SDS011;10546;50.674;4.616;2023-11-21T12:05:31;38.77;;;18.27;;
20772;SDS011;10546;50.674;4.616;2023-11-21T12:07:59;39.00;;;17.30;;
20772;SDS011;10546;50.674;4.616;2023-11-21T12:10:30;37.67;;;16.83;;
20772;SDS011;10546;50.674;4.616;2023-11-21T12:12:58;36.50;;;16.63;;
20772;SDS011;10546;50.674;4.616;2023-11-21T12:15:25;35.73;;;17.50;;
20772;SDS011;10546;50.674;4.616;2023-11-21T12:17:52;35.67;;;17.00;;
20772;SDS011;10546;50.674;4.616;2023-11-21T12:20:19;39.43;;;17.47;;
20772;SDS011;10546;50.674;4.616;2023-11-21T12:22:47;37.80;;;17.63;;
20772;SDS011;10546;50.674;4.616;2023-11-21T12:27:43;39.70;;;17.60;;
20772;SDS011;10546;50.674;4.616;2023-11-21T12:30:10;38.83;;;18.53;;
20772;SDS011;10546;50.674;4.616;2023-11-21T12:32:39;40.13;;;16.83;;
20772;SDS011;10546;50.674;4.616;2023-11-21T12:35:06;40.70;;;16.70;;
20772;SDS011;10546;50.674;4.616;2023-11-21T12:37:33;38.83;;;16.77;;
20772;SDS011;10546;50.674;4.616;2023-11-21T12:39:59;39.00;;;18.00;;
20772;SDS011;10546;50.674;4.616;2023-11-21T12:42:24;40.07;;;17.97;;
20772;SDS011;10546;50.674;4.616;2023-11-21T12:47:56;37.63;;;16.70;;
20772;SDS011;10546;50.674;4.616;2023-11-21T12:50:26;39.83;;;17.30;;
20772;SDS011;10546;50.674;4.616;2023-11-21T12:52:59;39.00;;;16.37;;
20772;SDS011;10546;50.674;4.616;2023-11-21T12:55:29;40.67;;;16.60;;
20772;SDS011;10546;50.674;4.616;2023-11-21T12:57:56;33.73;;;15.83;;
20772;SDS011;10546;50.674;4.616;2023-11-21T13:00:31;42.77;;;16.57;;
20772;SDS011;10546;50.674;4.616;2023-11-21T13:03:02;40.47;;;16.80;;
20772;SDS011;10546;50.674;4.616;2023-11-21T13:05:30;38.10;;;17.10;;
20772;SDS011;10546;50.674;4.616;2023-11-21T13:07:58;35.67;;;16.70;;
20772;SDS011;10546;50.674;4.616;2023-11-21T13:10:28;37.03;;;16.27;;
20772;SDS011;10546;50.674;4.616;2023-11-21T13:12:59;34.70;;;16.13;;
20772;SDS011;10546;50.674;4.616;2023-11-21T13:15:26;35.53;;;15.13;;
20772;SDS011;10546;50.674;4.616;2023-11-21T13:17:53;34.27;;;15.90;;
20772;SDS011;10546;50.674;4.616;2023-11-21T13:20:19;34.37;;;15.70;;
20772;SDS011;10546;50.674;4.616;2023-11-21T13:22:49;31.60;;;14.60;;
20772;SDS011;10546;50.674;4.616;2023-11-21T13:25:19;33.70;;;14.87;;
20772;SDS011;10546;50.674;4.616;2023-11-21T13:27:45;30.23;;;14.13;;
20772;SDS011;10546;50.674;4.616;2023-11-21T13:30:12;30.47;;;14.60;;
20772;SDS011;10546;50.674;4.616;2023-11-21T13:32:45;36.27;;;15.27;;
20772;SDS011;10546;50.674;4.616;2023-11-21T13:35:12;28.33;;;13.50;;
20772;SDS011;10546;50.674;4.616;2023-11-21T13:37:49;30.43;;;13.77;;
20772;SDS011;10546;50.674;4.616;2023-11-21T13:40:18;28.83;;;13.93;;
20772;SDS011;10546;50.674;4.616;2023-11-21T13:42:47;27.07;;;12.30;;
20772;SDS011;10546;50.674;4.616;2023-11-21T13:45:14;29.37;;;11.70;;
20772;SDS011;10546;50.674;4.616;2023-11-21T13:47:39;27.57;;;11.93;;
20772;SDS011;10546;50.674;4.616;2023-11-21T13:50:05;25.13;;;11.97;;
20772;SDS011;10546;50.674;4.616;2023-11-21T13:52:41;22.90;;;10.87;;
20772;SDS011;10546;50.674;4.616;2023-11-21T13:55:09;21.77;;;10.80;;
20772;SDS011;10546;50.674;4.616;2023-11-21T13:57:40;21.40;;;9.97;;
20772;SDS011;10546;50.674;4.616;2023-11-21T14:00:08;25.83;;;10.47;;
20772;SDS011;10546;50.674;4.616;2023-11-21T14:02:51;18.63;;;9.07;;
20772;SDS011;10546;50.674;4.616;2023-11-21T14:05:16;18.83;;;8.67;;
20772;SDS011;10546;50.674;4.616;2023-11-21T14:07:54;17.70;;;8.20;;
20772;SDS011;10546;50.674;4.616;2023-11-21T14:10:21;13.80;;;7.73;;
20772;SDS011;10546;50.674;4.616;2023-11-21T14:12:49;18.03;;;8.30;;
20772;SDS011;10546;50.674;4.616;2023-11-21T14:15:15;19.57;;;10.53;;
20772;SDS011;10546;50.674;4.616;2023-11-21T14:17:44;16.63;;;8.47;;
20772;SDS011;10546;50.674;4.616;2023-11-21T14:20:10;17.10;;;9.10;;
20772;SDS011;10546;50.674;4.616;2023-11-21T14:22:40;20.57;;;9.10;;
20772;SDS011;10546;50.674;4.616;2023-11-21T14:25:06;18.43;;;8.47;;
20772;SDS011;10546;50.674;4.616;2023-11-21T14:27:32;17.33;;;8.40;;
20772;SDS011;10546;50.674;4.616;2023-11-21T14:29:58;17.10;;;8.47;;
20772;SDS011;10546;50.674;4.616;2023-11-21T14:32:24;15.13;;;7.40;;
20772;SDS011;10546;50.674;4.616;2023-11-21T14:34:51;13.40;;;7.23;;
20772;SDS011;10546;50.674;4.616;2023-11-21T14:37:17;13.53;;;6.60;;
20772;SDS011;10546;50.674;4.616;2023-11-21T14:39:42;12.40;;;6.93;;
20772;SDS011;10546;50.674;4.616;2023-11-21T14:42:14;15.80;;;7.23;;
20772;SDS011;10546;50.674;4.616;2023-11-21T14:44:40;17.40;;;8.90;;
20772;SDS011;10546;50.674;4.616;2023-11-21T14:47:07;14.40;;;8.93;;
20772;SDS011;10546;50.674;4.616;2023-11-21T14:49:43;15.57;;;8.57;;
20772;SDS011;10546;50.674;4.616;2023-11-21T14:52:18;14.03;;;7.97;;
20772;SDS011;10546;50.674;4.616;2023-11-21T14:54:57;29.00;;;12.50;;
20772;SDS011;10546;50.674;4.616;2023-11-21T14:57:42;22.77;;;13.27;;
20772;SDS011;10546;50.674;4.616;2023-11-21T15:00:14;19.10;;;10.70;;
20772;SDS011;10546;50.674;4.616;2023-11-21T15:03:01;19.33;;;10.83;;
20772;SDS011;10546;50.674;4.616;2023-11-21T15:05:28;17.33;;;8.20;;
20772;SDS011;10546;50.674;4.616;2023-11-21T15:07:54;18.33;;;11.80;;
20772;SDS011;10546;50.674;4.616;2023-11-21T15:10:23;15.63;;;8.50;;
20772;SDS011;10546;50.674;4.616;2023-11-21T15:13:05;14.03;;;7.97;;
20772;SDS011;10546;50.674;4.616;2023-11-21T15:15:35;15.33;;;9.80;;
20772;SDS011;10546;50.674;4.616;2023-11-21T15:18:03;20.70;;;9.10;;
20772;SDS011;10546;50.674;4.616;2023-11-21T15:20:29;13.13;;;8.17;;
20772;SDS011;10546;50.674;4.616;2023-11-21T15:22:55;15.63;;;7.80;;
20772;SDS011;10546;50.674;4.616;2023-11-21T15:25:21;15.57;;;7.83;;
20772;SDS011;10546;50.674;4.616;2023-11-21T15:27:47;15.53;;;8.17;;
20772;SDS011;10546;50.674;4.616;2023-11-21T15:30:15;16.00;;;8.10;;
20772;SDS011;10546;50.674;4.616;2023-11-21T15:32:44;14.67;;;8.43;;
20772;SDS011;10546;50.674;4.616;2023-11-21T15:35:09;15.27;;;8.63;;
20772;SDS011;10546;50.674;4.616;2023-11-21T15:37:38;14.83;;;8.87;;
20772;SDS011;10546;50.674;4.616;2023-11-21T15:40:04;14.67;;;7.80;;
20772;SDS011;10546;50.674;4.616;2023-11-21T15:42:31;15.57;;;9.23;;
20772;SDS011;10546;50.674;4.616;2023-11-21T15:44:56;11.53;;;7.37;;
20772;SDS011;10546;50.674;4.616;2023-11-21T15:47:22;12.00;;;6.27;;
20772;SDS011;10546;50.674;4.616;2023-11-21T15:49:47;15.70;;;7.77;;
20772;SDS011;10546;50.674;4.616;2023-11-21T15:52:13;14.97;;;8.53;;
20772;SDS011;10546;50.674;4.616;2023-11-21T15:54:39;17.40;;;8.87;;
20772;SDS011;10546;50.674;4.616;2023-11-21T15:57:05;15.80;;;8.00;;
20772;SDS011;10546;50.674;4.616;2023-11-21T15:59:32;18.23;;;9.77;;
20772;SDS011;10546;50.674;4.616;2023-11-21T16:01:59;16.43;;;8.43;;
20772;SDS011;10546;50.674;4.616;2023-11-21T16:04:25;24.73;;;12.43;;
20772;SDS011;10546;50.674;4.616;2023-11-21T16:06:54;17.67;;;9.93;;
20772;SDS011;10546;50.674;4.616;2023-11-21T16:09:20;17.87;;;7.73;;
20772;SDS011;10546;50.674;4.616;2023-11-21T16:11:55;19.47;;;8.83;;
20772;SDS011;10546;50.674;4.616;2023-11-21T16:14:34;15.83;;;9.27;;
20772;SDS011;10546;50.674;4.616;2023-11-21T16:17:04;18.13;;;9.80;;
20772;SDS011;10546;50.674;4.616;2023-11-21T16:19:33;20.50;;;9.30;;
20772;SDS011;10546;50.674;4.616;2023-11-21T16:21:59;22.70;;;10.73;;
20772;SDS011;10546;50.674;4.616;2023-11-21T16:24:26;19.37;;;10.33;;
20772;SDS011;10546;50.674;4.616;2023-11-21T16:27:02;18.30;;;10.40;;
20772;SDS011;10546;50.674;4.616;2023-11-21T16:29:29;21.90;;;11.83;;
20772;SDS011;10546;50.674;4.616;2023-11-21T16:31:58;22.10;;;12.50;;
20772;SDS011;10546;50.674;4.616;2023-11-21T16:34:25;23.00;;;12.93;;
20772;SDS011;10546;50.674;4.616;2023-11-21T16:36:51;21.77;;;10.50;;
20772;SDS011;10546;50.674;4.616;2023-11-21T16:39:18;24.90;;;13.40;;
20772;SDS011;10546;50.674;4.616;2023-11-21T16:41:45;27.03;;;12.87;;
20772;SDS011;10546;50.674;4.616;2023-11-21T16:44:16;19.57;;;11.40;;
20772;SDS011;10546;50.674;4.616;2023-11-21T16:46:44;28.57;;;12.33;;
20772;SDS011;10546;50.674;4.616;2023-11-21T16:49:15;24.20;;;12.53;;
20772;SDS011;10546;50.674;4.616;2023-11-21T16:51:47;26.07;;;12.57;;
20772;SDS011;10546;50.674;4.616;2023-11-21T16:54:14;26.87;;;13.17;;
20772;SDS011;10546;50.674;4.616;2023-11-21T16:56:44;33.63;;;13.33;;
20772;SDS011;10546;50.674;4.616;2023-11-21T16:59:10;28.73;;;14.13;;
20772;SDS011;10546;50.674;4.616;2023-11-21T17:01:36;26.67;;;12.67;;
20772;SDS011;10546;50.674;4.616;2023-11-21T17:04:02;22.20;;;12.23;;
20772;SDS011;10546;50.674;4.616;2023-11-21T17:06:28;24.00;;;11.53;;
20772;SDS011;10546;50.674;4.616;2023-11-21T17:08:56;22.97;;;11.73;;
20772;SDS011;10546;50.674;4.616;2023-11-21T17:11:21;22.50;;;11.90;;
20772;SDS011;10546;50.674;4.616;2023-11-21T17:13:47;22.30;;;12.57;;
20772;SDS011;10546;50.674;4.616;2023-11-21T17:16:13;23.70;;;13.10;;
20772;SDS011;10546;50.674;4.616;2023-11-21T17:18:38;24.97;;;13.17;;
20772;SDS011;10546;50.674;4.616;2023-11-21T17:21:04;23.37;;;12.53;;
20772;SDS011;10546;50.674;4.616;2023-11-21T17:23:30;29.97;;;16.87;;
20772;SDS011;10546;50.674;4.616;2023-11-21T17:25:56;29.70;;;14.77;;
20772;SDS011;10546;50.674;4.616;2023-11-21T17:28:22;30.00;;;15.57;;
20772;SDS011;10546;50.674;4.616;2023-11-21T17:30:47;32.00;;;16.43;;
20772;SDS011;10546;50.674;4.616;2023-11-21T17:33:13;30.83;;;16.27;;
20772;SDS011;10546;50.674;4.616;2023-11-21T17:35:43;27.83;;;14.87;;
20772;SDS011;10546;50.674;4.616;2023-11-21T17:38:08;26.67;;;13.23;;
20772;SDS011;10546;50.674;4.616;2023-11-21T17:40:35;29.37;;;14.47;;
20772;SDS011;10546;50.674;4.616;2023-11-21T17:43:00;32.60;;;15.27;;
20772;SDS011;10546;50.674;4.616;2023-11-21T17:45:26;30.50;;;15.13;;
20772;SDS011;10546;50.674;4.616;2023-11-21T17:47:52;33.27;;;16.43;;
20772;SDS011;10546;50.674;4.616;2023-11-21T17:50:18;37.50;;;17.63;;
20772;SDS011;10546;50.674;4.616;2023-11-21T17:52:43;39.00;;;19.30;;
20772;SDS011;10546;50.674;4.616;2023-11-21T17:55:12;46.73;;;22.97;;
20772;SDS011;10546;50.674;4.616;2023-11-21T17:57:38;41.50;;;21.17;;
20772;SDS011;10546;50.674;4.616;2023-11-21T18:00:05;43.50;;;21.67;;
20772;SDS011;10546;50.674;4.616;2023-11-21T18:02:31;40.30;;;21.77;;
20772;SDS011;10546;50.674;4.616;2023-11-21T18:04:58;39.10;;;20.07;;
20772;SDS011;10546;50.674;4.616;2023-11-21T18:07:26;47.87;;;24.00;;
20772;SDS011;10546;50.674;4.616;2023-11-21T18:09:52;47.40;;;21.63;;
20772;SDS011;10546;50.674;4.616;2023-11-21T18:12:18;54.80;;;25.77;;
20772;SDS011;10546;50.674;4.616;2023-11-21T18:14:45;47.17;;;20.27;;
20772;SDS011;10546;50.674;4.616;2023-11-21T18:17:16;44.23;;;19.40;;
20772;SDS011;10546;50.674;4.616;2023-11-21T18:19:45;45.80;;;22.63;;
20772;SDS011;10546;50.674;4.616;2023-11-21T18:22:16;46.13;;;22.53;;
20772;SDS011;10546;50.674;4.616;2023-11-21T18:24:42;42.53;;;19.63;;
20772;SDS011;10546;50.674;4.616;2023-11-21T18:27:08;39.07;;;18.50;;
20772;SDS011;10546;50.674;4.616;2023-11-21T18:29:34;45.27;;;21.33;;
20772;SDS011;10546;50.674;4.616;2023-11-21T18:31:59;33.93;;;15.67;;
20772;SDS011;10546;50.674;4.616;2023-11-21T18:34:25;40.33;;;16.37;;
20772;SDS011;10546;50.674;4.616;2023-11-21T18:36:51;37.00;;;16.50;;
20772;SDS011;10546;50.674;4.616;2023-11-21T18:39:16;45.63;;;19.40;;
20772;SDS011;10546;50.674;4.616;2023-11-21T18:41:43;44.63;;;20.57;;
20772;SDS011;10546;50.674;4.616;2023-11-21T18:44:09;40.43;;;20.10;;
20772;SDS011;10546;50.674;4.616;2023-11-21T18:46:36;47.83;;;20.97;;
20772;SDS011;10546;50.674;4.616;2023-11-21T18:49:02;46.83;;;20.93;;
20772;SDS011;10546;50.674;4.616;2023-11-21T18:51:28;41.13;;;20.03;;
20772;SDS011;10546;50.674;4.616;2023-11-21T18:53:54;38.93;;;17.03;;
20772;SDS011;10546;50.674;4.616;2023-11-21T18:56:21;44.03;;;20.37;;
20772;SDS011;10546;50.674;4.616;2023-11-21T18:58:48;31.77;;;14.50;;
20772;SDS011;10546;50.674;4.616;2023-11-21T19:01:24;34.83;;;17.10;;
20772;SDS011;10546;50.674;4.616;2023-11-21T19:03:54;23.70;;;13.17;;
20772;SDS011;10546;50.674;4.616;2023-11-21T19:06:20;31.07;;;15.93;;
20772;SDS011;10546;50.674;4.616;2023-11-21T19:08:47;32.90;;;14.83;;
20772;SDS011;10546;50.674;4.616;2023-11-21T19:11:14;31.60;;;14.90;;
20772;SDS011;10546;50.674;4.616;2023-11-21T19:13:39;35.40;;;14.27;;
20772;SDS011;10546;50.674;4.616;2023-11-21T19:16:05;30.47;;;15.40;;
20772;SDS011;10546;50.674;4.616;2023-11-21T19:18:31;39.63;;;15.97;;
20772;SDS011;10546;50.674;4.616;2023-11-21T19:20:57;40.93;;;17.03;;
20772;SDS011;10546;50.674;4.616;2023-11-21T19:23:23;35.53;;;16.90;;
20772;SDS011;10546;50.674;4.616;2023-11-21T19:25:50;44.63;;;17.60;;
20772;SDS011;10546;50.674;4.616;2023-11-21T19:28:16;37.77;;;17.43;;
20772;SDS011;10546;50.674;4.616;2023-11-21T19:30:41;41.10;;;18.03;;
20772;SDS011;10546;50.674;4.616;2023-11-21T19:33:08;45.07;;;18.07;;
20772;SDS011;10546;50.674;4.616;2023-11-21T19:35:34;46.87;;;18.27;;
20772;SDS011;10546;50.674;4.616;2023-11-21T19:38:03;43.63;;;18.40;;
20772;SDS011;10546;50.674;4.616;2023-11-21T19:40:34;45.13;;;18.13;;
20772;SDS011;10546;50.674;4.616;2023-11-21T19:42:59;36.00;;;16.87;;
20772;SDS011;10546;50.674;4.616;2023-11-21T19:45:27;41.10;;;19.87;;
20772;SDS011;10546;50.674;4.616;2023-11-21T19:47:56;28.27;;;13.50;;
20772;SDS011;10546;50.674;4.616;2023-11-21T19:50:22;29.40;;;14.10;;
20772;SDS011;10546;50.674;4.616;2023-11-21T19:52:47;24.57;;;12.07;;
20772;SDS011;10546;50.674;4.616;2023-11-21T19:55:13;24.33;;;10.97;;
20772;SDS011;10546;50.674;4.616;2023-11-21T19:57:41;26.43;;;11.83;;
20772;SDS011;10546;50.674;4.616;2023-11-21T20:00:08;25.77;;;10.70;;
20772;SDS011;10546;50.674;4.616;2023-11-21T20:02:37;23.10;;;11.20;;
20772;SDS011;10546;50.674;4.616;2023-11-21T20:05:03;31.23;;;12.33;;
20772;SDS011;10546;50.674;4.616;2023-11-21T20:07:29;25.17;;;11.10;;
20772;SDS011;10546;50.674;4.616;2023-11-21T20:09:57;30.33;;;12.73;;
20772;SDS011;10546;50.674;4.616;2023-11-21T20:12:23;31.63;;;14.00;;
20772;SDS011;10546;50.674;4.616;2023-11-21T20:14:49;31.57;;;13.53;;
20772;SDS011;10546;50.674;4.616;2023-11-21T20:17:14;25.97;;;9.97;;
20772;SDS011;10546;50.674;4.616;2023-11-21T20:19:43;25.77;;;10.13;;
20772;SDS011;10546;50.674;4.616;2023-11-21T20:22:10;29.80;;;12.67;;
20772;SDS011;10546;50.674;4.616;2023-11-21T20:24:36;35.13;;;13.93;;
20772;SDS011;10546;50.674;4.616;2023-11-21T20:27:03;31.40;;;13.43;;
20772;SDS011;10546;50.674;4.616;2023-11-21T20:29:32;26.80;;;12.13;;
20772;SDS011;10546;50.674;4.616;2023-11-21T20:31:59;25.33;;;11.03;;
20772;SDS011;10546;50.674;4.616;2023-11-21T20:34:30;28.53;;;12.07;;
20772;SDS011;10546;50.674;4.616;2023-11-21T20:36:56;31.90;;;15.50;;
20772;SDS011;10546;50.674;4.616;2023-11-21T20:39:23;36.57;;;14.97;;
20772;SDS011;10546;50.674;4.616;2023-11-21T20:41:49;33.73;;;14.03;;
20772;SDS011;10546;50.674;4.616;2023-11-21T20:44:14;35.73;;;16.30;;
20772;SDS011;10546;50.674;4.616;2023-11-21T20:46:40;37.03;;;18.23;;
20772;SDS011;10546;50.674;4.616;2023-11-21T20:49:10;37.40;;;18.73;;
20772;SDS011;10546;50.674;4.616;2023-11-21T20:51:37;37.40;;;18.03;;
20772;SDS011;10546;50.674;4.616;2023-11-21T20:54:03;36.77;;;18.57;;
20772;SDS011;10546;50.674;4.616;2023-11-21T20:56:29;44.70;;;21.57;;
20772;SDS011;10546;50.674;4.616;2023-11-21T20:58:57;36.27;;;18.47;;
20772;SDS011;10546;50.674;4.616;2023-11-21T21:01:25;29.20;;;15.00;;
20772;SDS011;10546;50.674;4.616;2023-11-21T21:03:51;48.43;;;23.50;;
20772;SDS011;10546;50.674;4.616;2023-11-21T21:06:17;23.33;;;12.10;;
20772;SDS011;10546;50.674;4.616;2023-11-21T21:08:42;33.00;;;16.50;;
20772;SDS011;10546;50.674;4.616;2023-11-21T21:11:08;36.47;;;16.73;;
20772;SDS011;10546;50.674;4.616;2023-11-21T21:13:34;41.50;;;19.00;;
20772;SDS011;10546;50.674;4.616;2023-11-21T21:16:01;32.73;;;17.33;;
20772;SDS011;10546;50.674;4.616;2023-11-21T21:18:27;35.73;;;18.20;;
20772;SDS011;10546;50.674;4.616;2023-11-21T21:20:53;35.43;;;18.23;;
20772;SDS011;10546;50.674;4.616;2023-11-21T21:23:19;29.90;;;16.13;;
20772;SDS011;10546;50.674;4.616;2023-11-21T21:25:46;34.27;;;17.57;;
20772;SDS011;10546;50.674;4.616;2023-11-21T21:28:11;36.10;;;18.70;;
20772;SDS011;10546;50.674;4.616;2023-11-21T21:30:38;40.43;;;16.73;;
20772;SDS011;10546;50.674;4.616;2023-11-21T21:33:07;25.47;;;13.53;;
20772;SDS011;10546;50.674;4.616;2023-11-21T21:35:34;33.93;;;17.03;;
20772;SDS011;10546;50.674;4.616;2023-11-21T21:38:00;32.53;;;14.83;;
20772;SDS011;10546;50.674;4.616;2023-11-21T21:40:26;30.97;;;17.10;;
20772;SDS011;10546;50.674;4.616;2023-11-21T21:42:54;39.13;;;17.10;;
20772;SDS011;10546;50.674;4.616;2023-11-21T21:45:20;27.13;;;13.13;;
